Time;durP1;ratioP1;P1;durP2;ratioP2;P2;SDS_P1;SDS_P2;PMS_P1;PMS_P2;Temp;Humidity;BMP_temperature;BMP_pressure;BME280_temperature;BME280_humidity;BME280_pressure;Samples;Min_cycle;Max_cycle;Signal;HPM_P1;HPM_P2
2020/12/14 00:00:36;;;;;;;14.07;7.22;;;12.30;74.90;;;;;;5034901;28;81211;-72
2020/12/14 00:03:10;;;;;;;17.20;6.70;;;12.40;74.90;;;;;;5047422;27;80752;-74
2020/12/14 00:05:55;;;;;;;13.98;6.20;;;12.30;74.90;;;;;;5044678;28;80764;-73
2020/12/14 00:08:26;;;;;;;17.23;7.95;;;12.20;74.90;;;;;;5045463;27;82674;-73
2020/12/14 00:11:13;;;;;;;17.48;6.72;;;12.30;74.90;;;;;;5046358;27;80925;-72
2020/12/14 00:14:11;;;;;;;21.02;8.13;;;12.20;75.10;;;;;;5044511;27;80517;-73
2020/12/14 00:17:38;;;;;;;13.38;6.82;;;12.20;75.10;;;;;;5029955;28;83117;-70
2020/12/14 00:20:55;;;;;;;13.85;6.60;;;12.20;75.00;;;;;;5046390;27;80297;-71
2020/12/14 00:23:55;;;;;;;16.02;7.25;;;12.20;75.10;;;;;;5023516;28;80084;-71
2020/12/14 00:26:34;;;;;;;12.68;6.05;;;12.10;74.80;;;;;;5017838;28;80848;-71
2020/12/14 00:29:42;;;;;;;19.02;7.35;;;12.00;75.10;;;;;;5018692;28;80827;-71
2020/12/14 00:32:16;;;;;;;14.65;6.35;;;11.90;75.30;;;;;;5024427;28;80722;-72
2020/12/14 00:35:09;;;;;;;17.02;6.55;;;11.90;75.60;;;;;;5007271;28;83125;-73
2020/12/14 00:38:09;;;;;;;13.87;6.43;;;11.80;75.80;;;;;;5024308;28;80426;-70
2020/12/14 00:41:26;;;;;;;16.50;6.30;;;11.70;76.00;;;;;;5000248;28;82989;-71
2020/12/14 00:43:57;;;;;;;12.50;6.45;;;11.70;75.90;;;;;;4979262;28;79995;-71
2020/12/14 00:49:48;;;;;;;15.77;7.60;;;11.80;76.20;;;;;;4984070;28;81155;-73
2020/12/14 00:52:40;;;;;;;14.45;6.65;;;11.80;76.00;;;;;;4976337;28;80793;-72
2020/12/14 00:58:46;;;;;;;11.00;6.47;;;11.80;76.10;;;;;;4981409;28;81434;-72
2020/12/14 01:01:24;;;;;;;15.88;7.32;;;11.70;76.10;;;;;;5028506;27;80776;-74
2020/12/14 01:04:05;;;;;;;16.95;7.28;;;11.70;76.30;;;;;;5015714;28;83268;-74
2020/12/14 01:07:14;;;;;;;21.20;7.13;;;11.70;76.40;;;;;;5046683;28;80835;-73
2020/12/14 01:09:50;;;;;;;15.50;7.55;;;11.70;76.30;;;;;;5027722;28;83312;-74
2020/12/14 01:13:17;;;;;;;16.60;7.80;;;11.60;76.80;;;;;;5026963;28;79909;-73
2020/12/14 01:16:17;;;;;;;14.32;6.88;;;11.50;76.80;;;;;;5022246;28;81296;-72
2020/12/14 01:22:30;;;;;;;18.10;6.80;;;11.50;77.30;;;;;;5042366;28;80676;-72
2020/12/14 01:25:17;;;;;;;14.73;7.13;;;11.60;77.20;;;;;;4931186;28;80236;-70
2020/12/14 01:28:17;;;;;;;15.27;7.20;;;11.70;76.90;;;;;;4946924;28;82774;-73
2020/12/14 01:31:27;;;;;;;14.02;6.47;;;11.70;76.90;;;;;;4966945;28;80485;-72
2020/12/14 01:34:16;;;;;;;17.23;8.13;;;11.80;76.70;;;;;;4928858;28;80707;-71
2020/12/14 01:37:04;;;;;;;17.10;7.90;;;11.80;76.80;;;;;;4987176;28;79760;-71
2020/12/14 01:40:11;;;;;;;21.73;7.32;;;11.80;76.90;;;;;;5021776;28;81147;-72
2020/12/14 01:42:57;;;;;;;13.35;6.45;;;11.80;77.10;;;;;;5029245;28;80264;-73
2020/12/14 01:45:29;;;;;;;14.93;7.47;;;11.70;77.10;;;;;;4976791;28;80864;-73
2020/12/14 01:48:03;;;;;;;12.07;7.00;;;11.80;77.10;;;;;;5029068;28;79959;-73
2020/12/14 01:50:59;;;;;;;19.70;7.10;;;11.90;77.00;;;;;;5027825;28;79982;-74
2020/12/14 01:53:44;;;;;;;17.40;6.65;;;11.90;76.90;;;;;;4968433;28;82595;-73
2020/12/14 01:56:23;;;;;;;13.77;6.53;;;11.90;76.80;;;;;;4937529;28;80783;-75
2020/12/14 01:59:09;;;;;;;11.88;6.65;;;11.90;76.90;;;;;;4968468;28;80141;-77
2020/12/14 02:01:50;;;;;;;11.90;6.50;;;11.80;77.10;;;;;;4977644;28;81020;-74
2020/12/14 02:07:30;;;;;;;13.30;6.38;;;11.80;77.10;;;;;;4980288;28;80077;-73
2020/12/14 02:10:10;;;;;;;13.05;6.70;;;11.80;77.10;;;;;;4967429;28;82350;-72
2020/12/14 02:12:57;;;;;;;13.52;7.30;;;11.80;77.20;;;;;;4959772;28;82760;-74
2020/12/14 02:15:36;;;;;;;10.57;6.40;;;11.70;77.30;;;;;;4976731;28;80066;-74
2020/12/14 02:18:27;;;;;;;13.57;6.90;;;11.70;77.30;;;;;;4974460;28;80803;-73
2020/12/14 02:21:03;;;;;;;19.02;8.27;;;11.80;77.20;;;;;;4986562;28;81004;-72
2020/12/14 02:24:10;;;;;;;12.13;7.28;;;11.80;77.30;;;;;;4990319;28;81456;-72
2020/12/14 02:27:28;;;;;;;15.18;7.32;;;11.90;77.10;;;;;;5048035;28;80780;-73
2020/12/14 02:30:10;;;;;;;16.27;7.80;;;11.70;77.20;;;;;;5025942;28;81850;-75
2020/12/14 02:33:00;;;;;;;17.40;8.73;;;11.70;77.70;;;;;;5014518;28;83040;-74
2020/12/14 02:35:35;;;;;;;15.90;8.32;;;11.70;77.70;;;;;;5047532;28;81049;-74
2020/12/14 02:38:37;;;;;;;15.75;8.15;;;11.70;77.90;;;;;;5047446;28;82826;-75
2020/12/14 02:41:51;;;;;;;16.30;7.90;;;11.80;77.90;;;;;;5047183;28;82543;-75
2020/12/14 02:44:27;;;;;;;16.92;8.50;;;11.80;77.70;;;;;;5025236;28;80414;-76
2020/12/14 02:47:25;;;;;;;18.33;9.23;;;11.80;77.70;;;;;;5008668;28;81162;-74
2020/12/14 02:49:59;;;;;;;16.08;9.20;;;11.90;77.50;;;;;;5037324;27;80873;-74
2020/12/14 02:52:43;;;;;;;21.30;8.85;;;11.90;77.60;;;;;;5047275;27;80992;-75
2020/12/14 02:55:29;;;;;;;;;;;;;;;;;;;;;
2020/12/14 02:58:42;;;;;;;19.17;9.38;;;11.90;77.50;;;;;;5052733;28;104593;-74
2020/12/14 03:01:54;;;;;;;18.33;8.90;;;11.90;77.70;;;;;;5037116;27;80193;-74
2020/12/14 03:04:34;;;;;;;16.73;7.90;;;11.90;77.60;;;;;;5030170;28;81725;-74
2020/12/14 03:07:30;;;;;;;15.88;8.65;;;11.90;77.70;;;;;;5047325;27;80762;-72
2020/12/14 03:10:08;;;;;;;24.38;9.88;;;12.00;77.50;;;;;;5040579;27;80719;-71
2020/12/14 03:13:18;;;;;;;17.38;9.18;;;11.90;77.30;;;;;;5032087;28;80519;-72
2020/12/14 03:16:04;;;;;;;19.63;10.18;;;12.00;77.30;;;;;;4920705;28;83013;-73
2020/12/14 03:18:40;;;;;;;17.33;8.95;;;12.00;77.40;;;;;;5006027;28;82682;-74
2020/12/14 03:21:40;;;;;;;24.98;9.35;;;12.00;77.30;;;;;;4991213;28;80944;-72
2020/12/14 03:24:18;;;;;;;22.17;11.45;;;12.10;77.10;;;;;;5025807;28;80106;-72
2020/12/14 03:27:10;;;;;;;21.77;9.23;;;12.10;77.10;;;;;;4987799;28;83943;-72
2020/12/14 03:30:01;;;;;;;25.27;9.85;;;12.10;77.00;;;;;;5024504;28;84137;-71
2020/12/14 03:33:16;;;;;;;25.02;11.45;;;12.20;76.90;;;;;;5019818;28;80861;-71
2020/12/14 03:36:06;;;;;;;21.50;10.55;;;12.20;76.80;;;;;;4906987;28;82712;-70
2020/12/14 03:38:43;;;;;;;22.88;10.35;;;12.10;76.60;;;;;;4907950;28;83635;-72
2020/12/14 03:41:35;;;;;;;25.63;10.75;;;12.10;76.70;;;;;;5022379;28;83246;-72
2020/12/14 03:44:35;;;;;;;27.50;11.90;;;12.20;76.60;;;;;;5013288;28;83663;-72
2020/12/14 03:47:20;;;;;;;24.35;10.02;;;12.20;76.40;;;;;;5037167;28;83108;-73
2020/12/14 03:50:42;;;;;;;21.33;10.60;;;12.00;76.80;;;;;;5044290;27;83857;-72
2020/12/14 03:53:19;;;;;;;20.25;10.07;;;12.10;76.80;;;;;;5040950;28;82745;-70
2020/12/14 03:55:50;;;;;;;21.95;9.75;;;12.00;77.10;;;;;;5042777;28;82794;-72
2020/12/14 03:58:53;;;;;;;24.05;10.80;;;12.00;77.20;;;;;;5047748;28;83243;-70
2020/12/14 04:01:32;;;;;;;22.08;10.43;;;12.00;77.10;;;;;;5022925;28;84592;-71
2020/12/14 04:04:12;;;;;;;25.13;11.30;;;12.00;77.20;;;;;;5034661;28;83353;-75
2020/12/14 04:06:56;;;;;;;22.23;10.05;;;12.00;77.40;;;;;;5043076;28;82883;-72
2020/12/14 04:09:51;;;;;;;24.35;10.90;;;11.90;77.50;;;;;;5019473;28;83673;-73
2020/12/14 04:12:25;;;;;;;23.08;11.55;;;11.90;77.60;;;;;;5035261;27;83710;-73
2020/12/14 04:15:16;;;;;;;21.73;11.52;;;11.90;77.60;;;;;;5025425;28;82922;-72
2020/12/14 04:24:04;;;;;;;24.45;12.50;;;12.00;77.60;;;;;;4939672;28;83135;-73
2020/12/14 04:26:51;;;;;;;22.73;12.10;;;11.90;77.70;;;;;;4926097;28;83105;-72
2020/12/14 04:29:58;;;;;;;28.05;11.85;;;11.90;77.90;;;;;;4957947;28;83299;-72
2020/12/14 04:32:41;;;;;;;25.13;12.60;;;11.90;77.80;;;;;;4922115;28;84070;-71
2020/12/14 04:35:11;;;;;;;25.08;12.73;;;11.90;78.00;;;;;;4933820;28;86398;-71
2020/12/14 04:38:06;;;;;;;27.77;13.13;;;11.90;78.00;;;;;;4945908;28;82928;-71
2020/12/14 04:40:49;;;;;;;28.63;13.07;;;11.90;77.90;;;;;;4961798;28;86567;-71
2020/12/14 04:43:32;;;;;;;28.42;12.18;;;11.90;78.10;;;;;;4945195;28;85663;-70
2020/12/14 04:46:17;;;;;;;25.38;11.70;;;11.90;78.20;;;;;;4945609;28;84841;-70
2020/12/14 04:49:19;;;;;;;25.95;12.60;;;11.90;78.10;;;;;;4941935;28;82820;-70
2020/12/14 04:52:03;;;;;;;19.55;11.32;;;11.90;78.10;;;;;;4902904;28;83549;-70
2020/12/14 04:58:31;;;;;;;33.03;16.10;;;11.90;78.10;;;;;;4952442;28;83163;-70
2020/12/14 05:01:27;;;;;;;33.63;14.63;;;11.90;77.80;;;;;;4926952;28;84977;-70
2020/12/14 05:04:29;;;;;;;22.45;12.02;;;11.90;77.90;;;;;;4984742;28;83557;-70
2020/12/14 05:10:49;;;;;;;19.85;12.00;;;11.90;77.90;;;;;;4979446;28;83012;-72
2020/12/14 05:20:18;;;;;;;24.77;12.80;;;11.80;78.20;;;;;;4944857;28;82758;-70
2020/12/14 05:23:12;;;;;;;29.17;12.40;;;11.70;78.50;;;;;;4945958;28;83519;-70
2020/12/14 05:26:16;;;;;;;25.65;11.63;;;11.70;78.50;;;;;;4942493;28;83586;-72
2020/12/14 05:29:15;;;;;;;23.40;11.80;;;11.60;78.80;;;;;;4926063;28;83497;-71
2020/12/14 05:32:21;;;;;;;27.25;11.77;;;11.60;78.80;;;;;;4925854;28;83055;-72
2020/12/14 05:35:15;;;;;;;20.17;13.32;;;11.70;78.70;;;;;;4925934;28;82864;-72
2020/12/14 05:41:18;;;;;;;26.05;12.82;;;11.70;78.70;;;;;;4916305;28;83097;-73
2020/12/14 05:44:34;;;;;;;27.33;11.82;;;11.70;78.70;;;;;;4925380;28;83402;-75
2020/12/14 05:47:48;;;;;;;23.08;11.30;;;11.80;78.50;;;;;;4912213;28;83518;-72
2020/12/14 05:50:57;;;;;;;24.63;11.98;;;11.90;78.30;;;;;;4925250;28;82871;-72
2020/12/14 05:53:55;;;;;;;26.58;11.52;;;11.90;78.10;;;;;;4926064;28;85528;-72
2020/12/14 05:56:41;;;;;;;29.02;12.55;;;11.90;78.20;;;;;;4933472;28;82895;-72
2020/12/14 05:59:28;;;;;;;28.77;11.57;;;11.90;78.20;;;;;;4945906;28;83859;-72
2020/12/14 06:06:53;;;;;;;27.48;11.93;;;12.00;77.70;;;;;;4986960;28;84316;-73
2020/12/14 06:09:27;;;;;;;27.42;11.48;;;12.00;77.60;;;;;;5018382;28;82728;-72
2020/12/14 06:12:42;;;;;;;29.13;11.27;;;12.00;77.30;;;;;;5025906;28;84111;-72
2020/12/14 06:18:33;;;;;;;22.45;9.85;;;12.00;77.20;;;;;;4963551;28;83632;-70
2020/12/14 06:21:11;;;;;;;26.52;12.60;;;12.00;77.20;;;;;;4959069;28;82516;-72
2020/12/14 06:24:01;;;;;;;31.15;12.88;;;12.10;77.10;;;;;;5017661;28;83554;-72
2020/12/14 06:26:37;;;;;;;26.55;11.57;;;12.00;77.20;;;;;;5025786;28;83044;-74
2020/12/14 06:29:40;;;;;;;25.33;12.20;;;12.00;77.30;;;;;;4963044;28;84145;-74
2020/12/14 06:33:08;;;;;;;23.65;12.40;;;11.90;77.40;;;;;;5039855;28;83456;-75
2020/12/14 06:36:21;;;;;;;28.05;12.82;;;11.90;77.50;;;;;;4939331;28;83823;-75
2020/12/14 06:39:00;;;;;;;25.75;13.27;;;12.00;77.40;;;;;;4909875;28;83883;-77
2020/12/14 06:41:35;;;;;;;25.02;12.43;;;11.90;77.60;;;;;;4944365;28;84191;-72
2020/12/14 06:44:18;;;;;;;29.15;13.57;;;12.00;77.70;;;;;;4944842;28;82587;-74
2020/12/14 06:47:11;;;;;;;28.50;14.90;;;12.00;77.60;;;;;;4911853;28;83789;-74
2020/12/14 06:50:26;;;;;;;26.40;13.48;;;12.00;77.60;;;;;;4939740;28;83393;-73
2020/12/14 06:53:43;;;;;;;33.65;17.48;;;12.00;77.60;;;;;;4929482;28;83625;-68
2020/12/14 06:56:59;;;;;;;34.15;12.13;;;12.00;77.20;;;;;;5007343;28;82926;-78
2020/12/14 06:59:41;;;;;;;29.15;13.00;;;12.00;77.20;;;;;;5025853;28;83865;-73
2020/12/14 07:02:43;;;;;;;27.50;11.25;;;11.90;77.50;;;;;;5004826;28;83048;-74
2020/12/14 07:05:34;;;;;;;24.55;10.80;;;11.90;77.40;;;;;;4994294;28;83643;-66
2020/12/14 07:08:37;;;;;;;28.80;12.75;;;11.90;77.40;;;;;;5032457;28;83141;-65
2020/12/14 07:11:30;;;;;;;31.67;13.75;;;11.90;77.50;;;;;;5024127;28;83807;-69
2020/12/14 07:14:32;;;;;;;31.88;14.13;;;11.90;77.50;;;;;;5046149;28;82938;-70
2020/12/14 07:17:32;;;;;;;30.02;15.10;;;11.80;77.90;;;;;;5044702;28;83971;-65
2020/12/14 07:23:17;;;;;;;28.13;13.60;;;11.70;78.20;;;;;;4943556;28;83542;-66
2020/12/14 07:26:19;;;;;;;33.30;12.85;;;11.70;78.30;;;;;;4913868;28;82873;-69
2020/12/14 07:29:13;;;;;;;30.63;12.13;;;11.80;78.10;;;;;;5025160;28;83063;-65
2020/12/14 07:31:43;;;;;;;29.77;14.05;;;11.80;78.00;;;;;;5007217;28;82551;-69
2020/12/14 07:34:20;;;;;;;;;;;11.90;78.00;;;;;;5013933;28;83073;-68
2020/12/14 07:37:08;;;;;;;31.33;12.45;;;11.80;77.70;;;;;;5014658;28;81991;-66
2020/12/14 07:40:03;;;;;;;26.92;13.10;;;11.80;78.10;;;;;;5006916;28;82592;-65
2020/12/14 07:42:44;;;;;;;33.60;12.93;;;11.80;78.10;;;;;;5024128;28;84013;-64
2020/12/14 07:46:12;;;;;;;29.60;13.57;;;11.80;78.20;;;;;;5007583;28;83731;-65
2020/12/14 07:49:23;;;;;;;32.28;12.30;;;11.80;78.30;;;;;;5005766;28;84887;-66
2020/12/14 07:52:14;;;;;;;29.80;13.73;;;11.70;78.50;;;;;;4925911;28;85264;-69
2020/12/14 07:55:10;;;;;;;32.63;12.60;;;11.70;78.80;;;;;;4943282;28;84523;-66
2020/12/14 07:57:44;;;;;;;33.45;13.40;;;11.60;78.90;;;;;;4936094;28;85463;-65
2020/12/14 08:00:36;;;;;;;31.45;13.35;;;11.60;79.00;;;;;;4953065;28;83217;-67
2020/12/14 08:03:09;;;;;;;31.25;11.85;;;11.70;78.90;;;;;;4941112;28;83728;-65
2020/12/14 08:05:35;;;;;;;;;;;11.70;78.90;;;;;;4950779;28;85171;-65
2020/12/14 08:08:09;;;;;;;25.27;11.38;;;11.70;78.70;;;;;;4971223;28;75821;-66
2020/12/14 08:11:00;;;;;;;33.47;12.32;;;11.70;78.80;;;;;;4918417;28;83705;-66
2020/12/14 08:13:45;;;;;;;26.80;13.20;;;11.80;78.70;;;;;;4956842;28;84432;-66
2020/12/14 08:16:50;;;;;;;24.65;11.20;;;11.90;78.60;;;;;;4962643;28;83281;-67
2020/12/14 08:19:47;;;;;;;26.52;13.00;;;11.90;78.30;;;;;;4923318;28;83035;-66
2020/12/14 08:22:36;;;;;;;26.63;11.50;;;11.90;78.30;;;;;;4924338;28;83342;-67
2020/12/14 08:25:33;;;;;;;22.08;12.57;;;12.00;78.10;;;;;;4922345;28;83905;-66
2020/12/14 08:28:15;;;;;;;24.42;11.55;;;12.10;77.90;;;;;;4957263;28;85296;-65
2020/12/14 08:34:38;;;;;;;24.58;11.75;;;12.20;77.50;;;;;;4923540;28;82988;-65
2020/12/14 08:37:11;;;;;;;24.88;12.82;;;12.20;77.50;;;;;;4847618;29;85098;-65
2020/12/14 08:40:05;;;;;;;29.63;12.68;;;12.20;77.40;;;;;;4889265;28;83548;-67
2020/12/14 08:43:10;;;;;;;28.63;12.73;;;12.20;77.20;;;;;;4975413;28;83139;-65
2020/12/14 08:46:40;;;;;;;27.17;12.82;;;12.30;77.00;;;;;;4921620;28;82761;-66
2020/12/14 08:49:22;;;;;;;23.35;12.43;;;12.30;76.70;;;;;;4960194;28;83674;-66
2020/12/14 08:55:28;;;;;;;27.80;12.40;;;12.40;76.70;;;;;;4927316;28;83115;-66
2020/12/14 08:58:31;;;;;;;27.50;11.73;;;12.40;76.70;;;;;;4942187;28;83055;-66
2020/12/14 09:01:20;;;;;;;29.52;12.68;;;12.40;76.30;;;;;;4934237;28;83534;-67
2020/12/14 09:04:04;;;;;;;25.98;13.88;;;12.40;76.40;;;;;;4942481;28;83421;-66
2020/12/14 09:07:12;;;;;;;25.02;12.18;;;12.40;76.40;;;;;;5034410;28;82476;-65
2020/12/14 09:10:26;;;;;;;25.15;13.18;;;12.50;76.40;;;;;;5023030;28;83087;-66
2020/12/14 09:13:28;;;;;;;32.33;15.23;;;12.50;76.10;;;;;;4950820;28;86306;-65
2020/12/14 09:16:21;;;;;;;29.92;16.27;;;12.50;76.10;;;;;;5029167;28;83575;-66
2020/12/14 09:18:59;;;;;;;33.20;16.92;;;12.60;75.90;;;;;;5043251;28;82631;-67
2020/12/14 09:22:08;;;;;;;32.40;14.80;;;12.70;75.70;;;;;;5042771;28;82739;-67
2020/12/14 09:24:59;;;;;;;35.10;16.35;;;12.70;75.50;;;;;;4992300;28;83664;-66
2020/12/14 09:28:06;;;;;;;25.83;13.82;;;12.70;75.40;;;;;;5032869;28;83359;-66
2020/12/14 09:30:45;;;;;;;30.80;13.85;;;12.80;75.30;;;;;;4991360;28;83256;-66
2020/12/14 09:33:37;;;;;;;30.65;15.27;;;12.90;75.10;;;;;;5000487;28;82943;-66
2020/12/14 09:39:23;;;;;;;35.50;16.75;;;12.90;75.00;;;;;;5000834;28;83136;-66
2020/12/14 09:42:05;;;;;;;27.48;14.15;;;12.80;74.90;;;;;;5003469;28;83984;-66
2020/12/14 09:44:36;;;;;;;25.38;13.15;;;12.80;75.10;;;;;;5004376;28;83300;-66
2020/12/14 09:47:22;;;;;;;24.88;11.55;;;12.80;75.10;;;;;;4987702;28;86574;-66
2020/12/14 09:50:10;;;;;;;24.20;11.30;;;12.80;74.90;;;;;;4999216;28;83494;-67
2020/12/14 09:52:51;;;;;;;26.17;11.13;;;12.70;74.90;;;;;;4983766;28;82650;-66
2020/12/14 09:55:53;;;;;;;21.55;10.65;;;12.70;75.20;;;;;;4984292;28;82997;-66
2020/12/14 09:58:53;;;;;;;23.70;10.95;;;12.70;75.20;;;;;;4962433;28;85279;-66
2020/12/14 10:01:28;;;;;;;23.65;10.23;;;12.60;75.20;;;;;;4983886;28;84689;-66
2020/12/14 10:04:15;;;;;;;19.42;10.70;;;12.60;75.20;;;;;;4984454;28;83812;-66
2020/12/14 10:06:53;;;;;;;19.92;10.15;;;12.70;75.20;;;;;;4960583;28;82914;-67
2020/12/14 10:09:41;;;;;;;21.00;10.02;;;12.70;75.10;;;;;;4982919;28;83992;-67
2020/12/14 10:12:29;;;;;;;23.00;10.32;;;12.70;75.20;;;;;;4967604;28;84061;-67
2020/12/14 10:15:06;;;;;;;24.40;11.70;;;12.70;75.40;;;;;;4984498;28;85273;-66
2020/12/14 10:17:38;;;;;;;27.75;12.00;;;12.70;75.90;;;;;;4986828;28;84717;-67
2020/12/14 10:20:20;;;;;;;26.37;13.30;;;12.70;76.10;;;;;;4982430;28;83857;-67
2020/12/14 10:23:00;;;;;;;22.83;10.77;;;12.80;76.20;;;;;;4986565;28;84043;-67
2020/12/14 10:25:49;;;;;;;23.13;11.07;;;12.80;76.10;;;;;;5001710;28;83711;-66
2020/12/14 10:28:54;;;;;;;24.05;9.98;;;12.90;76.20;;;;;;5022105;28;82825;-66
2020/12/14 10:34:37;;;;;;;28.58;11.75;;;13.10;75.50;;;;;;4986535;28;82663;-65
2020/12/14 10:40:51;;;;;;;21.92;11.40;;;13.20;74.80;;;;;;5019765;28;82953;-66
2020/12/14 10:43:44;;;;;;;22.25;11.45;;;13.30;74.50;;;;;;5018423;28;83788;-66
2020/12/14 10:46:49;;;;;;;21.80;10.50;;;13.40;74.40;;;;;;4973731;28;85052;-65
2020/12/14 10:49:54;;;;;;;16.70;8.40;;;13.40;73.90;;;;;;5006424;28;83380;-64
2020/12/14 10:52:52;;;;;;;23.20;9.77;;;13.50;73.10;;;;;;4977155;28;82852;-64
2020/12/14 10:55:56;;;;;;;20.63;9.98;;;13.50;73.10;;;;;;4998657;28;80838;-64
2020/12/14 11:01:53;;;;;;;27.20;10.43;;;13.70;72.30;;;;;;5045290;28;81043;-65
2020/12/14 11:04:32;;;;;;;22.58;9.05;;;13.80;72.30;;;;;;5045690;28;82623;-65
2020/12/14 11:07:37;;;;;;;19.90;11.18;;;14.10;71.50;;;;;;5048100;28;81300;-64
2020/12/14 11:10:09;;;;;;;26.20;11.52;;;14.40;70.60;;;;;;5026665;28;82751;-65
2020/12/14 11:12:59;;;;;;;27.63;11.10;;;14.50;69.70;;;;;;5045738;28;83241;-67
2020/12/14 11:16:07;;;;;;;24.60;11.07;;;14.60;69.50;;;;;;5042717;28;83050;-66
2020/12/14 11:18:59;;;;;;;21.83;10.43;;;14.60;69.40;;;;;;5042889;28;82595;-65
2020/12/14 11:21:38;;;;;;;22.20;10.82;;;14.60;69.50;;;;;;5023950;28;83702;-65
2020/12/14 11:24:37;;;;;;;24.90;11.40;;;14.60;69.70;;;;;;5021460;28;82746;-65
2020/12/14 11:27:20;;;;;;;23.17;11.98;;;14.50;69.60;;;;;;5019476;28;83506;-64
2020/12/14 11:30:15;;;;;;;28.77;12.18;;;14.40;70.10;;;;;;5010408;28;83236;-65
2020/12/14 11:32:45;;;;;;;24.95;14.23;;;14.10;70.50;;;;;;5039365;28;83530;-64
2020/12/14 11:35:15;;;;;;;25.95;13.82;;;14.00;70.70;;;;;;5015366;28;83479;-64
2020/12/14 11:37:54;;;;;;;23.25;12.50;;;14.20;70.20;;;;;;5021686;28;83401;-64
2020/12/14 11:40:34;;;;;;;22.77;13.93;;;14.50;69.30;;;;;;5037496;28;83948;-67
2020/12/14 11:43:50;;;;;;;18.70;11.20;;;15.00;67.90;;;;;;5026894;28;83137;-64
2020/12/14 11:46:30;;;;;;;21.40;10.48;;;15.50;66.10;;;;;;5030427;28;82506;-67
2020/12/14 11:49:13;;;;;;;18.97;11.47;;;16.30;63.60;;;;;;5006176;28;82813;-67
2020/12/14 11:52:01;;;;;;;15.65;9.98;;;16.90;61.40;;;;;;5039420;28;83540;-65
2020/12/14 11:54:55;;;;;;;19.25;10.18;;;17.40;59.60;;;;;;5009235;28;82934;-65
2020/12/14 11:57:43;;;;;;;18.75;10.23;;;17.90;57.90;;;;;;4950910;28;85889;-66
2020/12/14 12:00:22;;;;;;;19.63;10.43;;;19.30;55.20;;;;;;4923077;28;85502;-65
2020/12/14 12:02:52;;;;;;;22.15;9.73;;;20.00;52.20;;;;;;4967679;28;83718;-65
2020/12/14 12:05:27;;;;;;;19.92;11.05;;;20.10;51.40;;;;;;4976950;28;83627;-67
2020/12/14 12:08:01;;;;;;;15.75;10.52;;;19.70;52.40;;;;;;4938118;28;84010;-68
2020/12/14 12:11:16;;;;;;;17.15;10.07;;;20.00;51.90;;;;;;4925637;28;83405;-67
2020/12/14 12:17:25;;;;;;;17.65;9.82;;;23.50;44.00;;;;;;4962934;28;82911;-67
2020/12/14 12:19:55;;;;;;;19.48;11.38;;;22.50;46.00;;;;;;4868761;29;81036;-68
2020/12/14 12:22:41;;;;;;;19.50;11.65;;;22.40;45.50;;;;;;4850686;29;82747;-66
2020/12/14 12:26:02;;;;;;;19.65;10.02;;;21.50;47.30;;;;;;4946458;28;84728;-66
2020/12/14 12:28:52;;;;;;;21.92;12.40;;;20.30;49.90;;;;;;4933866;28;83245;-66
2020/12/14 12:31:27;;;;;;;25.75;11.80;;;19.10;52.90;;;;;;4936135;28;83924;-67
2020/12/14 12:34:15;;;;;;;17.48;10.18;;;18.50;54.80;;;;;;4963363;28;82755;-66
2020/12/14 12:37:04;;;;;;;24.45;10.75;;;18.10;55.70;;;;;;4961970;28;83679;-67
2020/12/14 12:39:39;;;;;;;19.85;10.30;;;17.60;56.90;;;;;;4960617;28;83626;-65
2020/12/14 12:42:18;;;;;;;20.10;10.48;;;17.20;58.30;;;;;;4946365;28;83440;-65
2020/12/14 12:45:01;;;;;;;25.08;11.38;;;16.70;59.40;;;;;;4957142;28;83190;-65
2020/12/14 12:47:49;;;;;;;19.13;9.88;;;16.40;60.70;;;;;;4977769;28;82483;-65
2020/12/14 12:51:05;;;;;;;19.73;9.95;;;16.10;61.90;;;;;;4958380;28;83185;-65
2020/12/14 12:54:02;;;;;;;23.02;11.07;;;15.90;62.30;;;;;;5003234;28;80812;-66
2020/12/14 12:56:36;;;;;;;21.08;10.40;;;15.80;63.60;;;;;;4979508;28;82653;-64
2020/12/14 12:59:27;;;;;;;18.13;9.23;;;15.90;64.00;;;;;;5022814;28;83918;-63
2020/12/14 13:02:49;;;;;;;23.30;10.32;;;16.30;63.50;;;;;;4925647;28;82208;-65
2020/12/14 13:05:41;;;;;;;17.08;8.35;;;16.90;62.70;;;;;;4942960;28;82721;-65
2020/12/14 13:08:15;;;;;;;17.10;8.00;;;17.60;60.20;;;;;;4928632;28;83404;-63
2020/12/14 13:10:57;;;;;;;16.25;8.73;;;18.30;57.70;;;;;;4945467;28;80605;-64
2020/12/14 13:13:57;;;;;;;16.50;8.52;;;18.90;56.40;;;;;;4945016;28;80325;-66
2020/12/14 13:16:34;;;;;;;17.25;8.98;;;19.50;54.60;;;;;;4907161;28;81194;-65
2020/12/14 13:19:39;;;;;;;16.08;8.55;;;19.90;53.40;;;;;;4893171;28;82693;-65
2020/12/14 13:22:23;;;;;;;15.88;8.88;;;19.70;53.30;;;;;;4852926;29;79984;-67
2020/12/14 13:25:38;;;;;;;16.70;9.25;;;19.30;54.40;;;;;;4852175;29;80214;-65
2020/12/14 13:28:14;;;;;;;21.38;8.90;;;18.90;54.70;;;;;;4999438;28;82665;-67
2020/12/14 13:31:12;;;;;;;19.58;9.07;;;18.70;55.70;;;;;;4986819;28;80506;-66
2020/12/14 13:33:49;;;;;;;17.08;8.48;;;18.80;55.40;;;;;;4886555;28;80607;-66
2020/12/14 13:36:21;;;;;;;12.70;7.55;;;18.60;55.70;;;;;;4983982;28;81632;-66
2020/12/14 13:39:24;;;;;;;13.25;8.27;;;18.80;55.50;;;;;;4980804;28;81041;-66
2020/12/14 13:42:00;;;;;;;13.30;7.25;;;18.90;55.20;;;;;;4966758;28;82208;-66
2020/12/14 13:44:30;;;;;;;11.98;7.40;;;18.80;55.50;;;;;;4982894;28;81738;-66
2020/12/14 13:47:20;;;;;;;13.63;7.05;;;18.90;55.80;;;;;;4952177;28;81672;-66
2020/12/14 13:49:54;;;;;;;15.48;7.00;;;18.80;55.50;;;;;;4988512;28;80891;-66
2020/12/14 13:52:34;;;;;;;11.10;6.55;;;18.70;55.60;;;;;;4990908;28;81317;-68
2020/12/14 13:55:12;;;;;;;13.60;6.75;;;18.80;55.70;;;;;;4950632;28;82692;-66
2020/12/14 13:58:03;;;;;;;12.70;7.07;;;18.60;55.70;;;;;;4941584;28;80979;-66
2020/12/14 14:07:19;;;;;;;10.77;6.43;;;18.60;55.50;;;;;;4951112;28;81455;-67
2020/12/14 14:09:59;;;;;;;12.00;7.10;;;18.40;56.30;;;;;;4893652;28;81646;-65
2020/12/14 14:12:40;;;;;;;11.48;7.05;;;17.90;57.40;;;;;;4895059;28;81750;-65
2020/12/14 14:15:19;;;;;;;15.25;7.15;;;17.70;58.20;;;;;;4918786;28;80844;-65
2020/12/14 14:18:18;;;;;;;13.40;6.82;;;17.40;58.70;;;;;;4931623;28;80868;-65
2020/12/14 14:21:44;;;;;;;10.70;7.22;;;17.10;59.60;;;;;;4915229;28;81716;-67
2020/12/14 14:24:33;;;;;;;12.35;7.05;;;16.80;60.30;;;;;;4927495;28;80684;-66
2020/12/14 14:27:16;;;;;;;11.55;6.82;;;16.60;61.40;;;;;;4946204;28;80772;-66
2020/12/14 14:33:38;;;;;;;9.70;5.95;;;16.40;62.20;;;;;;4941545;28;81494;-66
2020/12/14 14:36:39;;;;;;;10.27;6.18;;;16.20;62.50;;;;;;4947672;28;82941;-66
2020/12/14 14:39:45;;;;;;;11.38;6.25;;;16.10;63.00;;;;;;4950104;28;80721;-67
2020/12/14 14:42:39;;;;;;;10.60;5.95;;;16.00;63.20;;;;;;4921106;28;81591;-67
2020/12/14 14:45:21;;;;;;;12.27;5.72;;;15.90;63.40;;;;;;4924473;28;80967;-66
2020/12/14 14:48:22;;;;;;;11.87;5.03;;;15.90;63.60;;;;;;4977459;28;82535;-65
2020/12/14 14:50:58;;;;;;;6.68;4.43;;;15.80;63.80;;;;;;5014518;28;81554;-67
2020/12/14 14:53:34;;;;;;;10.27;5.72;;;15.70;63.90;;;;;;5016581;28;83415;-65
2020/12/14 14:56:53;;;;;;;10.50;6.75;;;15.60;64.20;;;;;;4980129;28;83049;-66
2020/12/14 14:59:34;;;;;;;10.63;5.85;;;15.50;64.50;;;;;;5013108;28;83462;-66
2020/12/14 15:02:40;;;;;;;11.05;5.97;;;15.40;64.90;;;;;;5025291;28;81235;-67
2020/12/14 15:05:24;;;;;;;11.20;6.72;;;15.50;65.10;;;;;;5043382;28;82818;-66
2020/12/14 15:08:34;;;;;;;12.13;7.38;;;15.40;65.20;;;;;;4992746;28;80439;-65
2020/12/14 15:11:39;;;;;;;12.50;7.73;;;15.40;65.30;;;;;;4959372;28;81139;-66
2020/12/14 15:14:29;;;;;;;12.20;7.28;;;15.40;65.50;;;;;;5025087;28;80836;-66
2020/12/14 15:17:17;;;;;;;15.95;6.70;;;15.40;65.70;;;;;;5008991;28;81291;-66
2020/12/14 15:20:19;;;;;;;11.27;5.90;;;15.40;65.90;;;;;;5025318;28;80581;-66
2020/12/14 15:22:53;;;;;;;7.00;4.43;;;15.40;65.90;;;;;;5028627;28;79885;-66
2020/12/14 15:25:28;;;;;;;7.53;4.38;;;15.40;65.70;;;;;;5030080;27;80143;-65
2020/12/14 15:28:13;;;;;;;9.07;4.90;;;15.40;65.70;;;;;;5046635;28;81197;-67
2020/12/14 15:31:04;;;;;;;9.52;4.93;;;15.40;65.80;;;;;;5046486;28;80970;-66
2020/12/14 15:37:01;;;;;;;5.47;3.10;;;15.40;65.90;;;;;;5047327;27;80220;-67
2020/12/14 15:39:32;;;;;;;3.83;1.80;;;15.40;65.70;;;;;;5003243;27;80150;-65
2020/12/14 15:42:20;;;;;;;6.43;2.72;;;15.40;65.20;;;;;;5046585;27;82513;-66
2020/12/14 15:45:33;;;;;;;4.10;1.73;;;15.50;64.90;;;;;;5049788;27;82989;-65
2020/12/14 15:48:14;;;;;;;7.30;1.70;;;15.50;64.10;;;;;;4942660;28;81395;-65
2020/12/14 15:50:50;;;;;;;3.15;1.30;;;15.50;64.00;;;;;;4964972;28;80758;-66
2020/12/14 15:53:48;;;;;;;4.10;1.00;;;15.40;64.00;;;;;;4950911;28;80266;-65